Airfield :
LOGIN :

Register | Disclaimer

   EN    FR    IT 

 










Legend :    VFR   Marginal VFR   IFR   Intensive IFR   Very Intensive IFR
Visi :
Ceiling :
>= 8 km
>= 3000ft
5 to 8 km
1000 to 3000 ft
1500m to 5 km
500 to 1000 ft
800 to 1500m
200 to 500 ft
< 800m
< 200 ft
Symbols :   Thunderstorms  Fog  Heavy snow  Heavy precipitations  Wind > 20 kt
SIGMETs :     Misc.  Thunderstorms  Icing  Turbulence  Mountain Waves  Volcanic Ashes






- Airport Elevation : 194 ft
- IATA code : ANE


LFJR - Angers Marcé

CURRENT METAR :
  • 271800Z AUTO 30006KT 260V330 CAVOK 07/01 Q1015

EXPIRED METARs :
  • 271730Z AUTO 31007KT 270V350 CAVOK 08/00 Q1014
  • 271700Z AUTO 32009G19KT 270V360 CAVOK 08/01 Q1013
  • 271630Z AUTO 32011KT 270V350 9999 FEW039 08/00 Q1012
  • 271600Z AUTO 33013G25KT 290V360 9999 SCT037 SCT043 10/01 Q1011
  • 271530Z AUTO 32012G26KT 290V360 9999 SCT039 10/02 Q1010

Expired Forecast.



MET'MAP, your aeronautical weather chart ! - Copyright ORBIFLY December 2007 - Disclaimer

ORBIFLY MET'MAP TEAM :

Programming & Development : Alexandra Zaïnal
Concept & original design : Baudouin d'Aumeries
Assistance for programming : Marc-Olivier Méhu
Technical & hardware support : Manuel Goepfert

Contact : metmap@orbifly.com




SOURCES & CREDITS :

   NOAA